RJSH(METAR)
10/21 05:00
METAR RJSH 202000Z 22006KT 9999 FEW030 06/05 Q1027 RMK 1CU030 A3034=
戻る
トップページへ戻る
IMOC Co,.Ltd.